Time;durP1;ratioP1;P1;durP2;ratioP2;P2;SDS_P1;SDS_P2;PMS_P1;PMS_P2;Temp;Humidity;BMP_temperature;BMP_pressure;BME280_temperature;BME280_humidity;BME280_pressure;Samples;Min_cycle;Max_cycle;Signal;HPM_P1;HPM_P2
2022/05/19 00:01:18;;;;;;;10.38;3.85;;;17.20;43.50;;;;;;5088074;28;20040;-61
2022/05/19 00:03:43;;;;;;;9.40;3.25;;;17.20;43.80;;;;;;5090515;28;20464;-61
2022/05/19 00:06:10;;;;;;;9.38;4.20;;;17.10;44.10;;;;;;5073822;28;20326;-61
2022/05/19 00:11:28;;;;;;;9.10;3.47;;;17.00;44.30;;;;;;5080449;28;20124;-61
2022/05/19 00:13:54;;;;;;;8.57;3.88;;;17.00;44.60;;;;;;5083091;28;20020;-62
2022/05/19 00:16:20;;;;;;;11.50;3.55;;;17.00;44.80;;;;;;5079984;28;20608;-61
2022/05/19 00:18:45;;;;;;;6.80;3.30;;;16.90;44.90;;;;;;5080556;28;20024;-61
2022/05/19 00:21:11;;;;;;;10.20;3.60;;;16.90;45.60;;;;;;5068347;28;20489;-61
2022/05/19 00:23:37;;;;;;;7.40;3.50;;;16.80;45.10;;;;;;5084210;28;20039;-61
2022/05/19 00:26:03;;;;;;;8.90;3.60;;;16.70;45.40;;;;;;5072173;28;20354;-60
2022/05/19 00:28:29;;;;;;;6.68;3.35;;;16.70;45.30;;;;;;5081846;28;20020;-61
2022/05/19 00:30:54;;;;;;;7.13;3.92;;;16.60;45.70;;;;;;5082831;28;20480;-61
2022/05/19 00:33:20;;;;;;;8.73;4.28;;;16.60;45.60;;;;;;5062498;28;20024;-61
2022/05/19 00:35:46;;;;;;;8.40;3.85;;;16.60;45.60;;;;;;5080665;28;20039;-61
2022/05/19 00:38:12;;;;;;;8.38;3.78;;;16.60;45.80;;;;;;5062146;28;20480;-60
2022/05/19 00:40:43;;;;;;;6.35;3.50;;;16.50;46.00;;;;;;5065767;28;20036;-61
2022/05/19 00:43:09;;;;;;;8.43;3.90;;;16.50;46.10;;;;;;5066394;28;20020;-61
2022/05/19 00:45:44;;;;;;;9.48;3.90;;;16.50;46.00;;;;;;5061703;28;20496;-62
2022/05/19 00:48:22;;;;;;;12.80;3.90;;;16.50;46.20;;;;;;5086025;28;20040;-62
2022/05/19 00:51:03;;;;;;;12.73;3.50;;;16.50;46.10;;;;;;5067551;28;20024;-62
2022/05/19 00:53:55;;;;;;;9.30;3.60;;;16.60;46.00;;;;;;5090877;28;20027;-61
2022/05/19 00:56:27;;;;;;;8.25;3.88;;;16.60;45.90;;;;;;5079396;28;20020;-61
2022/05/19 00:59:09;;;;;;;12.93;4.00;;;16.70;46.00;;;;;;5079794;28;20036;-62
2022/05/19 01:01:39;;;;;;;11.55;3.80;;;16.60;46.80;;;;;;5083604;28;20092;-61
2022/05/19 01:04:35;;;;;;;6.72;3.53;;;16.70;46.80;;;;;;5089614;28;20032;-61
2022/05/19 01:07:07;;;;;;;6.75;3.85;;;16.70;46.20;;;;;;5087699;28;20025;-60
2022/05/19 01:09:35;;;;;;;10.27;3.78;;;16.70;46.00;;;;;;5081867;28;20144;-61
2022/05/19 01:12:06;;;;;;;10.35;3.50;;;16.80;46.00;;;;;;5081370;28;20025;-60
2022/05/19 01:14:33;;;;;;;13.25;4.65;;;16.80;46.10;;;;;;5084399;28;20100;-60
2022/05/19 01:16:59;;;;;;;9.32;3.80;;;16.80;46.70;;;;;;5069452;28;20420;-61
2022/05/19 01:20:00;;;;;;;8.07;4.05;;;16.80;46.00;;;;;;5088670;28;20064;-61
2022/05/19 01:22:50;;;;;;;11.80;4.18;;;16.80;46.00;;;;;;5068344;28;20035;-61
2022/05/19 01:25:45;;;;;;;19.40;4.15;;;16.80;46.10;;;;;;5083865;28;20020;-62
2022/05/19 01:28:11;;;;;;;6.60;3.45;;;16.80;46.30;;;;;;5084409;28;20031;-61
2022/05/19 01:30:39;;;;;;;11.93;4.55;;;16.80;46.20;;;;;;5084171;28;20024;-61
2022/05/19 01:33:05;;;;;;;11.65;3.90;;;16.80;46.30;;;;;;5070238;28;20035;-61
2022/05/19 01:35:34;;;;;;;7.88;3.85;;;16.80;46.40;;;;;;5067585;28;20492;-61
2022/05/19 01:38:20;;;;;;;9.35;3.70;;;16.80;46.50;;;;;;5085309;28;20029;-61
2022/05/19 01:40:59;;;;;;;10.43;3.63;;;16.70;46.70;;;;;;5078091;28;20024;-61
2022/05/19 01:43:43;;;;;;;7.93;3.97;;;16.70;46.80;;;;;;5076808;28;20497;-61
2022/05/19 01:46:24;;;;;;;7.65;3.58;;;16.70;47.00;;;;;;5086384;28;20031;-62
2022/05/19 01:49:17;;;;;;;7.35;4.28;;;16.80;47.00;;;;;;5087998;28;20492;-62
2022/05/19 01:51:52;;;;;;;6.68;3.40;;;16.70;47.10;;;;;;5073781;28;20036;-62
2022/05/19 01:54:26;;;;;;;8.10;3.38;;;16.70;47.10;;;;;;5089366;28;20066;-62
2022/05/19 01:56:52;;;;;;;7.68;3.65;;;16.70;47.10;;;;;;5087040;28;20016;-61
2022/05/19 01:59:26;;;;;;;10.18;4.45;;;16.60;47.20;;;;;;5085114;28;20065;-62
2022/05/19 02:02:05;;;;;;;9.02;3.67;;;16.70;46.70;;;;;;5064550;28;20024;-62
2022/05/19 02:04:45;;;;;;;8.95;4.00;;;16.70;46.70;;;;;;5082196;28;20028;-62
2022/05/19 02:07:13;;;;;;;12.43;4.70;;;16.70;46.40;;;;;;5086269;28;20045;-62
2022/05/19 02:09:51;;;;;;;9.40;3.55;;;16.60;46.00;;;;;;5072709;28;20020;-63
2022/05/19 02:12:17;;;;;;;11.23;3.75;;;16.60;46.00;;;;;;5067049;28;20036;-62
2022/05/19 02:14:50;;;;;;;10.90;4.43;;;16.60;46.00;;;;;;5088423;28;20032;-62
2022/05/19 02:17:19;;;;;;;8.55;4.18;;;16.60;46.10;;;;;;5064103;28;20481;-62
2022/05/19 02:19:51;;;;;;;13.25;4.25;;;16.60;46.10;;;;;;5070965;28;20055;-62
2022/05/19 02:22:21;;;;;;;9.68;4.07;;;16.60;46.30;;;;;;5062371;28;20133;-62
2022/05/19 02:24:59;;;;;;;10.50;4.43;;;16.50;46.40;;;;;;5090450;28;20150;-62
2022/05/19 02:27:37;;;;;;;11.00;4.32;;;16.50;46.90;;;;;;5074583;28;20408;-61
2022/05/19 02:30:08;;;;;;;13.05;4.50;;;16.50;47.30;;;;;;5090454;28;20020;-60
2022/05/19 02:32:35;;;;;;;8.68;4.47;;;16.50;47.60;;;;;;5063201;28;20028;-61
2022/05/19 02:35:03;;;;;;;9.05;4.10;;;16.40;47.50;;;;;;5082244;28;20032;-61
2022/05/19 02:37:29;;;;;;;8.88;4.30;;;16.40;47.60;;;;;;5076259;28;20041;-61
2022/05/19 02:39:55;;;;;;;14.48;4.45;;;16.30;47.70;;;;;;5090463;28;20023;-63
2022/05/19 02:42:20;;;;;;;7.75;4.10;;;16.40;47.40;;;;;;5092432;28;20020;-61
2022/05/19 02:44:46;;;;;;;10.02;4.13;;;16.30;47.40;;;;;;5090619;28;20148;-61
2022/05/19 02:47:12;;;;;;;9.52;3.65;;;16.20;47.10;;;;;;5085195;28;20028;-61
2022/05/19 02:49:37;;;;;;;9.57;3.88;;;16.20;46.90;;;;;;5074916;28;20397;-62
2022/05/19 02:52:04;;;;;;;5.75;3.17;;;16.20;46.70;;;;;;5087295;28;20029;-61
2022/05/19 02:54:29;;;;;;;11.80;4.13;;;16.20;46.40;;;;;;5088237;28;20024;-61
2022/05/19 02:56:55;;;;;;;8.52;3.92;;;16.20;46.10;;;;;;5093426;28;20066;-61
2022/05/19 02:59:20;;;;;;;11.82;3.80;;;16.20;46.20;;;;;;5086152;28;20079;-62
2022/05/19 03:01:46;;;;;;;10.70;4.28;;;16.20;45.80;;;;;;5085081;28;20027;-65
2022/05/19 03:04:12;;;;;;;10.60;3.20;;;16.10;45.90;;;;;;5091834;28;20393;-63
2022/05/19 03:06:38;;;;;;;6.40;3.25;;;16.10;45.90;;;;;;5082486;28;20385;-60
2022/05/19 03:09:07;;;;;;;13.15;4.25;;;16.10;46.50;;;;;;5089630;28;20713;-63
2022/05/19 03:11:33;;;;;;;8.30;4.00;;;16.10;47.70;;;;;;5082980;28;20459;-61
2022/05/19 03:13:59;;;;;;;11.70;4.80;;;16.10;48.80;;;;;;5092761;28;20024;-61
2022/05/19 03:16:25;;;;;;;14.20;4.70;;;16.00;49.40;;;;;;5090349;28;20047;-60
2022/05/19 03:18:50;;;;;;;8.68;4.35;;;15.90;49.90;;;;;;5090425;28;20023;-62
2022/05/19 03:21:16;;;;;;;8.30;4.40;;;16.00;50.30;;;;;;5062821;28;20036;-61
2022/05/19 03:23:42;;;;;;;6.10;4.10;;;15.90;50.70;;;;;;5089080;28;20024;-60
2022/05/19 03:26:07;;;;;;;9.15;4.20;;;15.80;51.00;;;;;;5078394;28;20401;-60
2022/05/19 03:28:34;;;;;;;10.48;4.68;;;15.80;51.20;;;;;;5091748;28;20902;-60
2022/05/19 03:31:00;;;;;;;10.02;4.60;;;15.80;51.40;;;;;;5072941;28;20035;-61
2022/05/19 03:33:26;;;;;;;8.73;4.28;;;15.80;51.60;;;;;;5068718;28;20020;-63
2022/05/19 03:35:59;;;;;;;15.07;4.78;;;15.80;51.70;;;;;;5093585;28;20037;-62
2022/05/19 03:38:25;;;;;;;12.63;5.22;;;15.80;52.00;;;;;;5090372;28;20024;-62
2022/05/19 03:40:51;;;;;;;12.77;4.70;;;15.80;51.90;;;;;;5092274;28;20500;-62
2022/05/19 03:43:17;;;;;;;10.27;4.32;;;15.80;52.00;;;;;;5090099;28;20062;-61
2022/05/19 03:45:43;;;;;;;7.93;4.15;;;15.70;52.10;;;;;;5081822;28;20020;-64
2022/05/19 03:48:09;;;;;;;10.98;4.88;;;15.70;52.30;;;;;;5086949;28;20465;-62
2022/05/19 03:50:35;;;;;;;9.02;5.20;;;15.90;52.20;;;;;;5083962;28;20028;-60
2022/05/19 03:53:00;;;;;;;10.02;4.47;;;15.70;52.40;;;;;;5090776;28;20024;-61
2022/05/19 03:55:26;;;;;;;12.70;4.65;;;15.70;52.60;;;;;;5068315;28;20499;-60
2022/05/19 03:57:52;;;;;;;10.55;5.03;;;15.70;52.50;;;;;;5070558;28;20031;-61
2022/05/19 04:00:18;;;;;;;15.13;5.30;;;15.80;52.50;;;;;;5088250;28;20404;-61
2022/05/19 04:02:45;;;;;;;15.13;5.28;;;15.80;52.50;;;;;;5087997;28;20028;-61
2022/05/19 04:05:13;;;;;;;13.48;4.63;;;15.80;52.50;;;;;;5089463;28;20092;-61
2022/05/19 04:07:39;;;;;;;19.63;5.03;;;15.80;52.50;;;;;;5073683;28;20031;-62
2022/05/19 04:10:07;;;;;;;11.38;4.75;;;15.80;52.50;;;;;;5088386;28;20043;-62
2022/05/19 04:12:33;;;;;;;9.23;3.88;;;15.80;52.10;;;;;;5066430;28;20276;-62
2022/05/19 04:14:59;;;;;;;16.17;4.68;;;15.80;51.80;;;;;;5088161;28;20027;-61
2022/05/19 04:17:25;;;;;;;12.15;4.55;;;15.90;51.40;;;;;;5078808;28;20021;-61
2022/05/19 04:19:51;;;;;;;10.73;4.40;;;15.90;51.10;;;;;;5063585;28;20384;-62
2022/05/19 04:22:35;;;;;;;12.50;4.38;;;16.00;50.90;;;;;;5089062;28;20028;-62
2022/05/19 04:25:02;;;;;;;14.00;4.43;;;16.00;50.70;;;;;;5058481;28;20168;-62
2022/05/19 04:27:29;;;;;;;13.05;4.13;;;16.00;50.30;;;;;;5089898;28;20020;-61
2022/05/19 04:29:55;;;;;;;13.77;4.43;;;16.10;50.20;;;;;;5085815;28;20036;-61
2022/05/19 04:32:21;;;;;;;11.70;4.70;;;16.10;49.90;;;;;;5088064;28;20020;-61
2022/05/19 04:34:46;;;;;;;14.90;6.38;;;16.20;49.70;;;;;;5069234;28;20492;-61
2022/05/19 04:37:13;;;;;;;14.30;4.30;;;16.30;49.40;;;;;;5084001;28;20056;-61
2022/05/19 04:39:38;;;;;;;14.50;4.38;;;16.30;49.10;;;;;;5081889;28;20094;-60
2022/05/19 04:42:09;;;;;;;11.75;4.63;;;16.30;48.80;;;;;;5086066;28;20073;-60
2022/05/19 04:44:36;;;;;;;14.23;4.07;;;16.40;48.70;;;;;;5071879;28;20722;-60
2022/05/19 04:47:02;;;;;;;11.35;4.13;;;16.40;48.50;;;;;;5065281;28;20123;-62
2022/05/19 04:49:28;;;;;;;12.55;4.63;;;16.40;48.50;;;;;;5062975;28;20028;-62
2022/05/19 04:51:54;;;;;;;7.68;4.10;;;16.50;48.40;;;;;;5064344;28;21006;-61
2022/05/19 04:54:20;;;;;;;13.20;4.75;;;16.50;48.20;;;;;;5065339;28;20033;-61
2022/05/19 04:56:45;;;;;;;12.40;4.65;;;16.50;48.20;;;;;;5068329;28;20032;-61
2022/05/19 04:59:14;;;;;;;9.80;4.47;;;16.40;48.20;;;;;;5064364;28;20024;-62
2022/05/19 05:01:44;;;;;;;7.38;4.45;;;16.50;48.40;;;;;;5048306;28;20035;-62
2022/05/19 05:04:10;;;;;;;10.02;4.10;;;16.50;48.40;;;;;;5046272;28;20028;-62
2022/05/19 05:06:36;;;;;;;14.10;4.88;;;16.60;48.30;;;;;;5062849;28;20028;-61
2022/05/19 05:09:03;;;;;;;21.27;5.22;;;16.70;48.40;;;;;;5062329;28;20100;-61
2022/05/19 05:11:29;;;;;;;14.23;4.60;;;16.70;48.30;;;;;;5044062;28;20422;-62
2022/05/19 05:13:54;;;;;;;13.20;4.68;;;16.80;48.20;;;;;;5061816;28;20059;-62
2022/05/19 05:16:20;;;;;;;10.10;4.03;;;16.80;48.10;;;;;;5066799;28;20031;-61
2022/05/19 05:18:46;;;;;;;10.25;4.53;;;16.80;48.20;;;;;;5063869;28;20025;-61
2022/05/19 05:21:13;;;;;;;14.10;4.65;;;16.90;48.00;;;;;;5067071;28;20434;-61
2022/05/19 05:23:39;;;;;;;12.68;4.55;;;17.00;48.10;;;;;;5068096;28;20037;-61
2022/05/19 05:26:06;;;;;;;13.02;4.78;;;17.20;47.80;;;;;;5067020;28;20477;-62
2022/05/19 05:28:33;;;;;;;16.52;4.32;;;17.10;47.70;;;;;;5069440;28;20056;-62
2022/05/19 05:30:59;;;;;;;11.23;4.40;;;17.20;47.70;;;;;;5039802;28;20036;-61
2022/05/19 05:33:25;;;;;;;11.38;4.38;;;17.30;47.60;;;;;;5060527;28;20063;-62
2022/05/19 05:35:50;;;;;;;13.05;4.60;;;17.40;47.70;;;;;;5048503;28;20423;-62
2022/05/19 05:38:17;;;;;;;19.77;4.80;;;17.50;47.50;;;;;;5061140;28;20020;-60
2022/05/19 05:40:44;;;;;;;16.42;4.30;;;17.50;47.50;;;;;;5069665;28;20020;-62
2022/05/19 05:43:13;;;;;;;6.25;3.92;;;17.60;47.30;;;;;;5051264;28;20077;-61
2022/05/19 05:45:40;;;;;;;10.75;3.92;;;17.70;47.20;;;;;;5066163;28;20108;-61
2022/05/19 05:48:07;;;;;;;9.55;4.10;;;17.80;47.10;;;;;;5084863;28;20110;-61
2022/05/19 05:50:32;;;;;;;8.77;3.70;;;17.90;47.00;;;;;;5083490;28;20114;-61
2022/05/19 05:52:59;;;;;;;13.80;3.70;;;17.90;47.30;;;;;;5084682;28;20024;-62
2022/05/19 05:55:25;;;;;;;6.18;3.35;;;18.00;47.30;;;;;;5080237;28;20113;-61
2022/05/19 05:57:50;;;;;;;12.68;4.28;;;18.00;47.30;;;;;;5082352;28;20056;-62
2022/05/19 06:00:17;;;;;;;10.00;3.95;;;18.00;47.20;;;;;;5062324;28;20024;-60
2022/05/19 06:02:42;;;;;;;11.20;3.60;;;18.00;47.30;;;;;;5080718;28;20051;-61
2022/05/19 06:05:10;;;;;;;10.20;4.28;;;18.00;47.20;;;;;;5080022;28;20047;-61
2022/05/19 06:07:36;;;;;;;11.82;3.78;;;18.20;47.30;;;;;;5078244;28;20020;-61
2022/05/19 06:10:01;;;;;;;8.55;3.70;;;18.30;46.90;;;;;;5084600;28;20020;-61
2022/05/19 06:12:27;;;;;;;9.23;3.85;;;18.40;46.90;;;;;;5081648;28;20051;-60
2022/05/19 06:14:55;;;;;;;13.15;4.30;;;18.60;46.80;;;;;;5088964;28;20029;-59
2022/05/19 06:17:20;;;;;;;17.02;4.53;;;18.60;46.70;;;;;;5064168;28;20111;-59
2022/05/19 06:19:46;;;;;;;16.55;4.30;;;18.70;46.70;;;;;;5086049;28;20099;-62
2022/05/19 06:22:12;;;;;;;10.50;4.25;;;18.90;46.50;;;;;;5092084;28;20028;-62
2022/05/19 06:24:38;;;;;;;12.73;3.88;;;19.00;46.30;;;;;;5089651;28;20032;-62
2022/05/19 06:27:04;;;;;;;13.50;4.60;;;19.10;45.80;;;;;;5087383;28;20473;-60
2022/05/19 06:29:29;;;;;;;15.05;4.28;;;19.10;45.90;;;;;;5088578;28;20378;-62
2022/05/19 06:31:55;;;;;;;10.15;4.25;;;19.30;45.80;;;;;;5069284;28;20410;-61
2022/05/19 06:34:21;;;;;;;15.77;4.65;;;19.40;45.60;;;;;;5087426;28;20556;-60
2022/05/19 06:36:48;;;;;;;12.25;3.97;;;19.60;45.50;;;;;;5082572;28;20096;-60
2022/05/19 06:39:16;;;;;;;11.52;4.10;;;19.70;45.10;;;;;;5082777;28;20469;-60
2022/05/19 06:42:01;;;;;;;9.18;3.80;;;19.80;45.00;;;;;;5075150;28;20039;-61
2022/05/19 06:44:39;;;;;;;10.38;3.45;;;19.90;44.70;;;;;;5075725;28;20052;-62
2022/05/19 06:47:13;;;;;;;14.50;4.10;;;20.20;44.20;;;;;;5056727;28;20075;-60
2022/05/19 06:49:52;;;;;;;15.48;4.05;;;20.50;43.50;;;;;;5062039;28;20477;-61
2022/05/19 06:52:22;;;;;;;13.57;3.78;;;22.20;41.90;;;;;;5072270;28;20039;-63
2022/05/19 06:54:51;;;;;;;15.18;4.45;;;26.40;36.50;;;;;;5093050;28;20016;-63
2022/05/19 06:57:19;;;;;;;12.48;3.75;;;30.90;30.00;;;;;;5082081;28;20084;-62
2022/05/19 06:59:46;;;;;;;11.00;3.58;;;33.70;27.10;;;;;;5086578;28;20050;-62
2022/05/19 07:02:13;;;;;;;10.85;3.85;;;35.60;25.70;;;;;;5093160;28;20036;-62
2022/05/19 07:04:41;;;;;;;8.55;3.20;;;37.30;24.60;;;;;;5074628;28;20028;-62
2022/05/19 07:07:26;;;;;;;11.35;3.33;;;38.60;23.70;;;;;;5093375;28;20020;-63
2022/05/19 07:09:52;;;;;;;11.68;3.65;;;39.50;22.90;;;;;;5081436;28;20047;-62
2022/05/19 07:12:24;;;;;;;10.13;3.28;;;39.90;22.20;;;;;;5092899;28;20480;-63
2022/05/19 07:14:51;;;;;;;10.98;2.80;;;40.10;22.00;;;;;;5093251;28;20091;-63
2022/05/19 07:17:17;;;;;;;7.63;3.22;;;40.20;21.80;;;;;;5075328;28;20143;-64
2022/05/19 07:22:28;;;;;;;12.27;3.42;;;41.60;21.50;;;;;;5091108;28;20086;-62
2022/05/19 07:24:54;;;;;;;13.05;3.38;;;42.50;21.30;;;;;;5093527;28;20070;-63
2022/05/19 07:27:20;;;;;;;12.30;3.30;;;43.20;21.00;;;;;;5093430;28;20048;-63
2022/05/19 07:29:46;;;;;;;10.57;3.35;;;43.80;20.70;;;;;;5092400;28;20085;-62
2022/05/19 07:32:12;;;;;;;13.43;3.40;;;44.00;20.70;;;;;;5093225;28;20381;-63
2022/05/19 07:34:39;;;;;;;8.50;3.00;;;44.30;20.30;;;;;;5090358;28;20024;-65
2022/05/19 07:37:06;;;;;;;9.05;2.88;;;44.20;20.50;;;;;;5085097;28;20047;-65
2022/05/19 07:39:32;;;;;;;8.88;3.03;;;43.80;19.80;;;;;;5072658;28;20111;-63
2022/05/19 07:41:58;;;;;;;12.77;3.65;;;43.60;20.00;;;;;;5091287;28;20102;-65
2022/05/19 07:44:26;;;;;;;9.38;3.17;;;43.80;19.80;;;;;;5089759;28;20052;-62
2022/05/19 07:46:53;;;;;;;13.00;3.80;;;43.80;19.80;;;;;;5064885;28;20486;-64
2022/05/19 07:49:19;;;;;;;10.77;3.60;;;44.60;19.80;;;;;;5091789;28;20038;-64
2022/05/19 07:51:45;;;;;;;10.23;3.28;;;44.90;19.60;;;;;;5067685;28;20036;-64
2022/05/19 07:54:19;;;;;;;12.50;3.88;;;45.00;19.50;;;;;;5072579;28;20074;-62
2022/05/19 07:56:46;;;;;;;11.82;3.50;;;45.00;19.40;;;;;;5083056;28;20044;-62
2022/05/19 07:59:13;;;;;;;10.43;3.30;;;45.00;19.30;;;;;;5083949;28;20024;-61
2022/05/19 08:01:40;;;;;;;6.82;3.10;;;45.00;19.20;;;;;;5086078;28;20035;-65
2022/05/19 08:04:08;;;;;;;9.40;3.15;;;45.00;19.20;;;;;;5087581;28;20049;-62
2022/05/19 08:06:34;;;;;;;6.82;3.70;;;45.30;19.20;;;;;;5082191;28;20031;-66
2022/05/19 08:09:00;;;;;;;11.98;3.47;;;45.40;19.20;;;;;;5087019;28;20020;-63
2022/05/19 08:11:29;;;;;;;8.13;2.85;;;45.00;19.10;;;;;;5089409;28;20028;-63
2022/05/19 08:16:40;;;;;;;10.32;3.20;;;45.80;19.00;;;;;;5086328;28;20553;-64
2022/05/19 08:19:06;;;;;;;9.18;3.38;;;46.20;18.90;;;;;;5072413;28;20027;-62
2022/05/19 08:21:32;;;;;;;9.48;3.50;;;46.30;19.00;;;;;;5067172;28;20028;-63
2022/05/19 08:23:58;;;;;;;10.80;3.45;;;46.60;18.90;;;;;;5070881;28;20032;-63
2022/05/19 08:26:24;;;;;;;11.10;3.47;;;46.70;18.70;;;;;;5090432;28;20028;-64
2022/05/19 08:28:51;;;;;;;12.63;3.50;;;46.60;18.80;;;;;;5063405;28;20096;-64
2022/05/19 08:31:22;;;;;;;11.77;4.00;;;47.30;18.70;;;;;;5090066;28;20043;-64
2022/05/19 08:33:51;;;;;;;9.15;3.85;;;47.60;18.30;;;;;;5081662;28;20180;-64
2022/05/19 08:36:17;;;;;;;15.70;3.88;;;47.30;18.50;;;;;;5063369;28;20024;-63
2022/05/19 08:38:47;;;;;;;9.82;3.60;;;47.50;18.60;;;;;;5089628;28;20035;-62
2022/05/19 08:41:30;;;;;;;15.05;3.58;;;47.10;18.30;;;;;;5070284;28;20035;-62
2022/05/19 08:44:08;;;;;;;13.73;3.30;;;46.70;18.60;;;;;;5078424;28;20049;-62
2022/05/19 08:46:41;;;;;;;11.57;3.97;;;47.00;18.40;;;;;;5063776;28;20047;-62
2022/05/19 08:49:31;;;;;;;8.80;3.67;;;46.80;18.70;;;;;;5063750;28;20032;-65
2022/05/19 08:52:09;;;;;;;15.00;3.20;;;47.00;18.40;;;;;;5078053;28;20024;-64
2022/05/19 08:54:36;;;;;;;9.18;3.30;;;45.60;18.50;;;;;;5063000;28;20119;-65
2022/05/19 08:57:12;;;;;;;21.85;3.78;;;45.10;18.80;;;;;;5087268;28;20473;-62
2022/05/19 09:00:07;;;;;;;10.68;3.67;;;45.10;18.90;;;;;;5088810;28;20366;-63
2022/05/19 09:03:07;;;;;;;7.13;3.20;;;45.10;18.80;;;;;;5060205;28;20555;-62
2022/05/19 09:05:46;;;;;;;10.63;2.78;;;44.30;19.10;;;;;;5080643;28;20028;-65
2022/05/19 09:08:39;;;;;;;5.50;2.40;;;43.80;19.20;;;;;;5079521;28;20149;-62
2022/05/19 09:11:12;;;;;;;16.38;2.30;;;43.20;19.30;;;;;;5084618;28;20031;-63
2022/05/19 09:13:44;;;;;;;8.48;2.50;;;41.50;19.60;;;;;;5085082;28;20026;-62
2022/05/19 09:16:26;;;;;;;7.03;2.25;;;38.40;20.70;;;;;;5085044;28;20024;-64
2022/05/19 09:18:59;;;;;;;6.47;2.30;;;35.70;22.00;;;;;;5081971;28;20012;-65
2022/05/19 09:21:26;;;;;;;10.00;2.20;;;33.40;23.20;;;;;;5071564;28;20169;-63
2022/05/19 09:23:52;;;;;;;12.40;2.10;;;31.90;24.20;;;;;;5084086;28;20331;-64
2022/05/19 09:26:54;;;;;;;10.75;2.25;;;31.00;25.00;;;;;;5069659;28;20031;-65
2022/05/19 09:29:29;;;;;;;8.65;2.45;;;29.90;26.00;;;;;;5084368;28;20059;-63
2022/05/19 09:32:03;;;;;;;11.50;2.50;;;29.20;26.50;;;;;;5074469;28;20028;-63
2022/05/19 09:34:30;;;;;;;14.43;2.15;;;28.70;26.90;;;;;;5071356;28;20097;-65
2022/05/19 09:37:06;;;;;;;19.23;2.83;;;28.40;27.20;;;;;;5062336;28;20399;-64
2022/05/19 09:39:41;;;;;;;12.05;2.30;;;28.00;27.60;;;;;;5085364;28;20043;-61
2022/05/19 09:42:10;;;;;;;19.85;2.90;;;27.80;27.70;;;;;;5079982;28;20154;-64
2022/05/19 09:44:42;;;;;;;7.47;2.00;;;27.50;28.00;;;;;;5083651;28;20101;-62
2022/05/19 09:47:25;;;;;;;8.90;2.53;;;27.30;28.10;;;;;;5070045;28;20057;-64
2022/05/19 09:50:16;;;;;;;5.88;2.60;;;27.00;28.60;;;;;;5089856;28;20041;-64
2022/05/19 09:52:44;;;;;;;12.63;2.45;;;26.90;29.00;;;;;;5065018;28;20063;-65
2022/05/19 09:55:13;;;;;;;12.65;2.58;;;26.80;29.00;;;;;;5093519;28;20035;-63
2022/05/19 09:57:53;;;;;;;9.35;2.70;;;26.80;29.20;;;;;;5091944;28;20115;-64
2022/05/19 10:00:31;;;;;;;7.95;2.42;;;26.70;29.40;;;;;;5058055;28;20081;-63
2022/05/19 10:03:00;;;;;;;8.57;2.28;;;26.90;29.30;;;;;;5062311;28;20463;-63
2022/05/19 10:05:46;;;;;;;15.63;2.53;;;26.90;29.20;;;;;;5090892;28;20051;-62
2022/05/19 10:08:14;;;;;;;13.40;2.60;;;26.80;29.40;;;;;;5075375;28;20048;-63
2022/05/19 10:11:07;;;;;;;9.45;2.63;;;26.80;29.30;;;;;;5089503;28;20495;-62
2022/05/19 10:13:57;;;;;;;7.55;2.72;;;26.80;29.30;;;;;;5066920;28;20106;-62
2022/05/19 10:16:42;;;;;;;14.95;2.38;;;26.90;29.30;;;;;;5089995;28;20020;-62
2022/05/19 10:19:46;;;;;;;8.05;2.35;;;26.90;29.20;;;;;;5085853;28;20131;-63
2022/05/19 10:22:30;;;;;;;15.63;2.63;;;26.80;29.40;;;;;;5089124;28;20457;-64
2022/05/19 10:25:11;;;;;;;13.05;2.88;;;26.70;29.30;;;;;;5068282;28;20081;-63
2022/05/19 10:31:23;;;;;;;12.73;2.83;;;26.70;29.30;;;;;;5080682;28;20450;-65
2022/05/19 10:34:15;;;;;;;9.68;2.67;;;26.80;29.40;;;;;;5070017;28;20024;-61
2022/05/19 10:37:00;;;;;;;7.78;2.30;;;26.70;29.50;;;;;;5085620;28;20091;-63
2022/05/19 10:39:50;;;;;;;9.85;2.80;;;26.60;29.40;;;;;;5065402;28;20530;-63
2022/05/19 10:42:25;;;;;;;8.93;2.78;;;26.50;29.50;;;;;;5085193;28;20031;-62
2022/05/19 10:45:25;;;;;;;10.35;3.38;;;26.60;29.60;;;;;;5081365;28;20123;-63
2022/05/19 10:48:17;;;;;;;11.43;2.42;;;26.90;29.60;;;;;;5058551;28;20116;-62
2022/05/19 10:51:02;;;;;;;10.90;2.45;;;27.10;29.40;;;;;;5061170;28;20033;-62
2022/05/19 10:53:54;;;;;;;18.83;2.83;;;27.20;29.20;;;;;;5079539;28;20017;-60
2022/05/19 10:56:46;;;;;;;13.45;2.38;;;27.30;29.30;;;;;;5083943;28;20023;-62
2022/05/19 10:59:30;;;;;;;10.93;2.80;;;27.40;29.20;;;;;;5086456;28;20039;-62
2022/05/19 11:02:23;;;;;;;9.82;2.85;;;27.50;29.20;;;;;;5089924;28;20028;-63
2022/05/19 11:05:10;;;;;;;11.45;2.78;;;27.40;29.10;;;;;;5080223;28;20024;-62
2022/05/19 11:08:04;;;;;;;9.93;2.25;;;27.40;29.00;;;;;;5059509;28;20032;-63
2022/05/19 11:10:58;;;;;;;10.25;2.80;;;27.40;28.90;;;;;;5070546;28;20474;-64
2022/05/19 11:13:47;;;;;;;6.47;2.70;;;27.30;29.10;;;;;;5090206;28;20069;-64
2022/05/19 11:16:36;;;;;;;8.35;2.65;;;27.40;29.10;;;;;;5084093;28;20048;-63
2022/05/19 11:19:26;;;;;;;8.18;2.10;;;27.60;28.80;;;;;;5082617;28;20461;-65
2022/05/19 11:21:59;;;;;;;11.05;2.60;;;27.60;28.80;;;;;;5079800;28;20473;-63
2022/05/19 11:27:38;;;;;;;8.60;2.10;;;27.60;28.70;;;;;;5082597;28;20051;-65
2022/05/19 11:30:08;;;;;;;;;;;27.80;28.50;;;;;;5076808;28;20055;-64
2022/05/19 11:32:37;;;;;;;9.63;2.40;;;27.90;28.60;;;;;;5088589;28;20002;-64
2022/05/19 11:35:23;;;;;;;14.82;2.40;;;27.90;28.30;;;;;;5088618;28;20026;-63
2022/05/19 11:38:28;;;;;;;10.18;2.70;;;27.80;28.30;;;;;;5082010;28;20228;-62
2022/05/19 11:40:57;;;;;;;;;;;27.70;28.30;;;;;;5031984;28;20135;-63
2022/05/19 11:43:35;;;;;;;8.63;2.42;;;27.90;28.50;;;;;;5039916;28;1236512;-64
2022/05/19 11:46:09;;;;;;;12.02;2.17;;;27.80;28.20;;;;;;5078053;28;20535;-63
2022/05/19 11:57:12;;;;;;;10.32;2.08;;;27.60;28.10;;;;;;5088224;28;20137;-64
2022/05/19 11:59:40;;;;;;;10.23;2.40;;;27.70;28.10;;;;;;5083770;28;20429;-63
2022/05/19 12:02:10;;;;;;;11.23;2.53;;;27.80;28.10;;;;;;5063257;28;20040;-64
2022/05/19 12:04:41;;;;;;;11.35;2.50;;;27.90;28.00;;;;;;5086822;28;20369;-64
2022/05/19 12:07:33;;;;;;;20.08;2.92;;;28.00;28.00;;;;;;5088852;28;20131;-62
2022/05/19 12:09:59;;;;;;;4.88;2.35;;;28.20;27.80;;;;;;5082128;28;20064;-63
2022/05/19 12:12:49;;;;;;;10.98;2.22;;;28.10;27.50;;;;;;5087484;28;20027;-63
2022/05/19 12:15:23;;;;;;;12.75;2.28;;;28.10;27.40;;;;;;5090514;28;20019;-63
2022/05/19 12:18:18;;;;;;;13.60;2.30;;;28.00;27.30;;;;;;5080710;28;20064;-63
2022/05/19 12:21:02;;;;;;;8.63;2.30;;;28.00;27.50;;;;;;5044494;28;20035;-62
2022/05/19 12:23:56;;;;;;;9.20;2.45;;;28.00;27.40;;;;;;5065915;28;20127;-64
2022/05/19 12:26:25;;;;;;;14.13;2.80;;;28.20;27.50;;;;;;5080525;28;20064;-64
2022/05/19 12:29:04;;;;;;;9.02;2.30;;;28.40;27.30;;;;;;5087149;28;20089;-63
2022/05/19 12:34:44;;;;;;;6.55;2.05;;;28.50;27.00;;;;;;5086565;28;20121;-63
2022/05/19 12:37:13;;;;;;;9.63;2.72;;;28.50;27.00;;;;;;5077216;28;20026;-64
2022/05/19 12:39:50;;;;;;;5.20;2.10;;;28.50;26.90;;;;;;5081162;28;20022;-65
2022/05/19 12:42:26;;;;;;;11.25;2.22;;;28.50;26.90;;;;;;5088755;28;20024;-64
2022/05/19 12:44:56;;;;;;;8.70;2.10;;;28.50;27.00;;;;;;5086148;28;20528;-62
2022/05/19 12:47:30;;;;;;;8.68;2.80;;;28.60;27.00;;;;;;5083405;28;20078;-65
2022/05/19 12:50:02;;;;;;;;;;;28.50;26.90;;;;;;5083991;28;20028;-64
2022/05/19 12:53:04;;;;;;;12.27;3.00;;;28.50;27.00;;;;;;5067145;28;19908;-64
2022/05/19 12:55:45;;;;;;;10.18;2.53;;;28.50;27.00;;;;;;5088607;28;20020;-64
2022/05/19 12:58:45;;;;;;;13.40;2.92;;;28.50;26.90;;;;;;5071619;28;20385;-64
2022/05/19 13:01:32;;;;;;;7.70;2.40;;;28.80;26.80;;;;;;5081149;28;20084;-64
2022/05/19 13:04:10;;;;;;;15.10;2.47;;;28.70;26.60;;;;;;5083635;28;20026;-63
2022/05/19 13:06:46;;;;;;;9.90;2.22;;;28.70;26.70;;;;;;5074822;28;20020;-63
2022/05/19 13:09:18;;;;;;;12.18;2.80;;;28.80;26.70;;;;;;5080908;28;20103;-64
2022/05/19 13:11:53;;;;;;;10.63;2.30;;;28.80;26.50;;;;;;5082097;28;20036;-63
2022/05/19 13:14:30;;;;;;;7.25;2.40;;;28.80;26.50;;;;;;5065340;28;20052;-65
2022/05/19 13:16:57;;;;;;;6.70;2.13;;;28.80;26.60;;;;;;5062471;28;20030;-65
2022/05/19 13:19:34;;;;;;;9.63;2.58;;;28.70;26.60;;;;;;5061044;28;20021;-65
2022/05/19 13:22:10;;;;;;;9.27;2.10;;;28.80;26.50;;;;;;5088834;28;20482;-63
2022/05/19 13:24:40;;;;;;;6.35;2.33;;;28.80;26.30;;;;;;5071483;28;20027;-65
2022/05/19 13:32:39;;;;;;;9.23;1.95;;;28.70;26.30;;;;;;5085571;28;20443;-64
2022/05/19 13:35:21;;;;;;;11.07;2.25;;;28.90;26.30;;;;;;5057594;28;20481;-65
2022/05/19 13:37:48;;;;;;;7.78;2.28;;;29.00;26.00;;;;;;5069170;28;20115;-64
2022/05/19 13:40:34;;;;;;;13.02;2.17;;;29.10;26.00;;;;;;5089047;28;20075;-64